SAS565 ENVA-ENAL
Flight info
| Callsign | SAS565 |
|---|---|
| Flight time | 0h 34m |
| Altitude | 22000 |
| Route | GOGOX DCT DEKEB |
| Aircraft | A319/M-SDE3FGHIRWY/LB1 |
Departure
| Time | 2026-05-07 20:52 |
|---|---|
| Airport | Trondheim Airport, Værnes (ENVA) |
Arrival
| Time | 2026-05-07 21:26 |
|---|---|
| Airport | Ålesund Airport (ENAL) |
| Time | Latitude | Longitude | Altitude | Speed | Heading |
|---|---|---|---|---|---|
| 2026-05-07 20:35 | 63.45499 | 10.91745 | 37 ft | 0 kts | 180° |
| 2026-05-07 20:42 | 63.45500 | 10.91745 | 39 ft | 1 kts | 180° |
| 2026-05-07 20:43 | 63.45516 | 10.91745 | 39 ft | 3 kts | 180° |
| 2026-05-07 20:43 | 63.45536 | 10.91745 | 39 ft | 3 kts | 180° |
| 2026-05-07 20:43 | 63.45552 | 10.91746 | 39 ft | 1 kts | 180° |
| 2026-05-07 20:47 | 63.45541 | 10.91737 | 39 ft | 4 kts | 197° |
| 2026-05-07 20:48 | 63.45539 | 10.91758 | 35 ft | 3 kts | 88° |
| 2026-05-07 20:48 | 63.45581 | 10.91881 | 40 ft | 14 kts | 44° |
| 2026-05-07 20:48 | 63.45594 | 10.92096 | 41 ft | 16 kts | 92° |
| 2026-05-07 20:48 | 63.45593 | 10.92371 | 42 ft | 19 kts | 92° |
| 2026-05-07 20:49 | 63.45594 | 10.92689 | 44 ft | 21 kts | 89° |
| 2026-05-07 20:49 | 63.45593 | 10.93030 | 49 ft | 23 kts | 89° |
| 2026-05-07 20:49 | 63.45591 | 10.93391 | 54 ft | 24 kts | 91° |
| 2026-05-07 20:49 | 63.45591 | 10.93751 | 60 ft | 21 kts | 86° |
| 2026-05-07 20:50 | 63.45679 | 10.94022 | 58 ft | 23 kts | 41° |
| 2026-05-07 20:50 | 63.45754 | 10.94107 | 57 ft | 8 kts | 313° |
| 2026-05-07 20:50 | 63.45758 | 10.94069 | 60 ft | 0 kts | 271° |
| 2026-05-07 20:51 | 63.45758 | 10.93888 | 58 ft | 41 kts | 270° |
| 2026-05-07 20:51 | 63.45760 | 10.92714 | 45 ft | 109 kts | 270° |
| 2026-05-07 20:51 | 63.45765 | 10.90565 | 64 ft | 162 kts | 270° |
| 2026-05-07 20:52 | 63.45780 | 10.88128 | 813 ft | 155 kts | 271° |
| 2026-05-07 20:52 | 63.45790 | 10.85710 | 1590 ft | 156 kts | 269° |
| 2026-05-07 20:52 | 63.45793 | 10.83241 | 2260 ft | 165 kts | 269° |
| 2026-05-07 20:52 | 63.45793 | 10.80498 | 2687 ft | 188 kts | 269° |
| 2026-05-07 20:53 | 63.45792 | 10.77396 | 3107 ft | 212 kts | 270° |
| 2026-05-07 20:53 | 63.45791 | 10.73886 | 3650 ft | 238 kts | 270° |
| 2026-05-07 20:53 | 63.45788 | 10.70037 | 4483 ft | 254 kts | 270° |
| 2026-05-07 20:53 | 63.45783 | 10.66046 | 5482 ft | 260 kts | 270° |
| 2026-05-07 20:54 | 63.45779 | 10.61987 | 5860 ft | 260 kts | 269° |
| 2026-05-07 20:54 | 63.45778 | 10.57940 | 5986 ft | 260 kts | 269° |
| 2026-05-07 20:54 | 63.45777 | 10.53886 | 6026 ft | 261 kts | 269° |
| 2026-05-07 20:54 | 63.45564 | 10.49809 | 6802 ft | 264 kts | 257° |
| 2026-05-07 20:55 | 63.45189 | 10.45868 | 7945 ft | 263 kts | 257° |
| 2026-05-07 20:55 | 63.44823 | 10.41845 | 9042 ft | 265 kts | 257° |
| 2026-05-07 20:55 | 63.44454 | 10.37775 | 10122 ft | 268 kts | 257° |
| 2026-05-07 20:55 | 63.44070 | 10.33537 | 10662 ft | 290 kts | 257° |
| 2026-05-07 20:56 | 63.43651 | 10.28968 | 11164 ft | 308 kts | 257° |
| 2026-05-07 20:56 | 63.43214 | 10.24234 | 11987 ft | 314 kts | 258° |
| 2026-05-07 20:56 | 63.42771 | 10.19446 | 12912 ft | 317 kts | 258° |
| 2026-05-07 20:56 | 63.42319 | 10.14600 | 13843 ft | 320 kts | 258° |
| 2026-05-07 20:57 | 63.41862 | 10.09718 | 14659 ft | 323 kts | 259° |
| 2026-05-07 20:57 | 63.41399 | 10.04777 | 15419 ft | 325 kts | 259° |
| 2026-05-07 20:57 | 63.40939 | 9.99905 | 15738 ft | 323 kts | 259° |
| 2026-05-07 20:57 | 63.40468 | 9.94959 | 16383 ft | 329 kts | 259° |
| 2026-05-07 20:58 | 63.39988 | 9.89940 | 17138 ft | 332 kts | 259° |
| 2026-05-07 20:58 | 63.39501 | 9.84882 | 17931 ft | 335 kts | 259° |
| 2026-05-07 20:58 | 63.39004 | 9.79757 | 18700 ft | 338 kts | 259° |
| 2026-05-07 20:58 | 63.38506 | 9.74630 | 19415 ft | 340 kts | 259° |
| 2026-05-07 20:59 | 63.37964 | 9.69473 | 20170 ft | 342 kts | 257° |
| 2026-05-07 20:59 | 63.37327 | 9.64350 | 20929 ft | 343 kts | 256° |
| 2026-05-07 20:59 | 63.36633 | 9.59246 | 21675 ft | 345 kts | 255° |
| 2026-05-07 20:59 | 63.35921 | 9.54142 | 22091 ft | 346 kts | 255° |
| 2026-05-07 21:00 | 63.35212 | 9.49062 | 22181 ft | 340 kts | 255° |
| 2026-05-07 21:00 | 63.34516 | 9.44050 | 22197 ft | 337 kts | 255° |
| 2026-05-07 21:00 | 63.33835 | 9.39072 | 22199 ft | 336 kts | 256° |
| 2026-05-07 21:00 | 63.33148 | 9.34006 | 22300 ft | 349 kts | 256° |
| 2026-05-07 21:01 | 63.32442 | 9.28793 | 22813 ft | 353 kts | 256° |
| 2026-05-07 21:01 | 63.31732 | 9.23573 | 23605 ft | 351 kts | 256° |
| 2026-05-07 21:01 | 63.31017 | 9.18373 | 24369 ft | 347 kts | 256° |
| 2026-05-07 21:01 | 63.30318 | 9.13287 | 25121 ft | 343 kts | 256° |
| 2026-05-07 21:02 | 63.29635 | 9.08316 | 25841 ft | 340 kts | 256° |
| 2026-05-07 21:02 | 63.28953 | 9.03295 | 26118 ft | 338 kts | 257° |
| 2026-05-07 21:02 | 63.28283 | 8.98305 | 26183 ft | 336 kts | 257° |
| 2026-05-07 21:02 | 63.27616 | 8.93343 | 26187 ft | 335 kts | 257° |
| 2026-05-07 21:03 | 63.26947 | 8.88386 | 26192 ft | 335 kts | 257° |
| 2026-05-07 21:03 | 63.26288 | 8.83422 | 26189 ft | 334 kts | 259° |
| 2026-05-07 21:03 | 63.25945 | 8.78358 | 26186 ft | 331 kts | 268° |
| 2026-05-07 21:03 | 63.25840 | 8.73243 | 26186 ft | 331 kts | 268° |
| 2026-05-07 21:04 | 63.25727 | 8.68141 | 26178 ft | 332 kts | 268° |
| 2026-05-07 21:04 | 63.25605 | 8.63022 | 26182 ft | 332 kts | 268° |
| 2026-05-07 21:04 | 63.25477 | 8.57917 | 26176 ft | 331 kts | 268° |
| 2026-05-07 21:04 | 63.25349 | 8.52806 | 26176 ft | 331 kts | 268° |
| 2026-05-07 21:05 | 63.25261 | 8.49355 | 26172 ft | 331 kts | 268° |
| 2026-05-07 21:05 | 63.25129 | 8.44248 | 26168 ft | 331 kts | 268° |
| 2026-05-07 21:05 | 63.24999 | 8.39212 | 26169 ft | 332 kts | 268° |
| 2026-05-07 21:05 | 63.24868 | 8.34090 | 26170 ft | 331 kts | 268° |
| 2026-05-07 21:06 | 63.24682 | 8.28993 | 26165 ft | 332 kts | 265° |
| 2026-05-07 21:06 | 63.24401 | 8.23824 | 26169 ft | 344 kts | 264° |
| 2026-05-07 21:06 | 63.24065 | 8.18520 | 26168 ft | 349 kts | 263° |
| 2026-05-07 21:06 | 63.23705 | 8.13172 | 26167 ft | 351 kts | 263° |
| 2026-05-07 21:07 | 63.23342 | 8.07827 | 26167 ft | 351 kts | 263° |
| 2026-05-07 21:07 | 63.22987 | 8.02500 | 25719 ft | 348 kts | 263° |
| 2026-05-07 21:07 | 63.22641 | 7.97169 | 24667 ft | 350 kts | 263° |
| 2026-05-07 21:07 | 63.22297 | 7.91818 | 23745 ft | 350 kts | 263° |
| 2026-05-07 21:08 | 63.21954 | 7.86491 | 22822 ft | 346 kts | 263° |
| 2026-05-07 21:08 | 63.21625 | 7.81333 | 22476 ft | 330 kts | 262° |
| 2026-05-07 21:08 | 63.21073 | 7.76477 | 22008 ft | 320 kts | 252° |
| 2026-05-07 21:08 | 63.20175 | 7.72038 | 21560 ft | 310 kts | 248° |
| 2026-05-07 21:09 | 63.19273 | 7.67779 | 21113 ft | 302 kts | 248° |
| 2026-05-07 21:09 | 63.18385 | 7.63561 | 20678 ft | 302 kts | 248° |
| 2026-05-07 21:09 | 63.17500 | 7.59348 | 20233 ft | 302 kts | 248° |
| 2026-05-07 21:09 | 63.16615 | 7.55148 | 19784 ft | 301 kts | 247° |
| 2026-05-07 21:10 | 63.15731 | 7.50954 | 19330 ft | 301 kts | 247° |
| 2026-05-07 21:10 | 63.14847 | 7.46759 | 18867 ft | 301 kts | 247° |
| 2026-05-07 21:10 | 63.13946 | 7.42568 | 18403 ft | 302 kts | 244° |
| 2026-05-07 21:10 | 63.12776 | 7.38707 | 17902 ft | 303 kts | 232° |
| 2026-05-07 21:11 | 63.11308 | 7.35367 | 17432 ft | 303 kts | 227° |
| 2026-05-07 21:11 | 63.09803 | 7.32117 | 16965 ft | 302 kts | 227° |
| 2026-05-07 21:11 | 63.06821 | 7.25657 | 16051 ft | 299 kts | 226° |
| 2026-05-07 21:12 | 63.05338 | 7.22440 | 15587 ft | 299 kts | 226° |
| 2026-05-07 21:12 | 63.03865 | 7.19253 | 15137 ft | 298 kts | 226° |
| 2026-05-07 21:12 | 63.02384 | 7.16055 | 14679 ft | 298 kts | 225° |
| 2026-05-07 21:12 | 63.00899 | 7.12860 | 14223 ft | 298 kts | 225° |
| 2026-05-07 21:13 | 62.99416 | 7.09674 | 13734 ft | 298 kts | 225° |
| 2026-05-07 21:13 | 62.97936 | 7.06495 | 13270 ft | 297 kts | 225° |
| 2026-05-07 21:13 | 62.96463 | 7.03332 | 12820 ft | 295 kts | 225° |
| 2026-05-07 21:13 | 62.94995 | 7.00184 | 12377 ft | 294 kts | 225° |
| 2026-05-07 21:14 | 62.93535 | 6.97057 | 11932 ft | 293 kts | 225° |
| 2026-05-07 21:14 | 62.92080 | 6.93946 | 11490 ft | 291 kts | 225° |
| 2026-05-07 21:14 | 62.90631 | 6.90853 | 11057 ft | 290 kts | 225° |
| 2026-05-07 21:14 | 62.89199 | 6.87805 | 10631 ft | 289 kts | 224° |
| 2026-05-07 21:15 | 62.87765 | 6.84760 | 10372 ft | 282 kts | 224° |
| 2026-05-07 21:15 | 62.86368 | 6.81799 | 10117 ft | 276 kts | 224° |
| 2026-05-07 21:15 | 62.84998 | 6.78901 | 9973 ft | 274 kts | 224° |
| 2026-05-07 21:15 | 62.83633 | 6.76017 | 9832 ft | 270 kts | 224° |
| 2026-05-07 21:16 | 62.82291 | 6.73207 | 9543 ft | 265 kts | 222° |
| 2026-05-07 21:16 | 62.80703 | 6.71132 | 8884 ft | 269 kts | 198° |
| 2026-05-07 21:16 | 62.78856 | 6.70349 | 8213 ft | 270 kts | 189° |
| 2026-05-07 21:16 | 62.77017 | 6.69724 | 7611 ft | 268 kts | 189° |
| 2026-05-07 21:17 | 62.75179 | 6.69096 | 7041 ft | 266 kts | 189° |
| 2026-05-07 21:17 | 62.73362 | 6.68471 | 6505 ft | 262 kts | 189° |
| 2026-05-07 21:17 | 62.71619 | 6.67870 | 6349 ft | 245 kts | 189° |
| 2026-05-07 21:17 | 62.69961 | 6.67300 | 6210 ft | 237 kts | 189° |
| 2026-05-07 21:18 | 62.68353 | 6.66742 | 6021 ft | 231 kts | 190° |
| 2026-05-07 21:18 | 62.66842 | 6.65334 | 5453 ft | 248 kts | 222° |
| 2026-05-07 21:18 | 62.66014 | 6.62041 | 5070 ft | 256 kts | 259° |
| 2026-05-07 21:18 | 62.66053 | 6.58147 | 4707 ft | 258 kts | 272° |
| 2026-05-07 21:19 | 62.65747 | 6.54409 | 4379 ft | 250 kts | 240° |
| 2026-05-07 21:19 | 62.64789 | 6.51306 | 4050 ft | 249 kts | 236° |
| 2026-05-07 21:19 | 62.63998 | 6.47965 | 3710 ft | 249 kts | 243° |
| 2026-05-07 21:19 | 62.63285 | 6.44544 | 3369 ft | 248 kts | 244° |
| 2026-05-07 21:20 | 62.62563 | 6.41141 | 3025 ft | 248 kts | 243° |
| 2026-05-07 21:20 | 62.61835 | 6.37755 | 2682 ft | 247 kts | 243° |
| 2026-05-07 21:20 | 62.61105 | 6.34376 | 2385 ft | 245 kts | 243° |
| 2026-05-07 21:20 | 62.60394 | 6.31082 | 2212 ft | 237 kts | 243° |
| 2026-05-07 21:21 | 62.59828 | 6.27808 | 2099 ft | 228 kts | 262° |
| 2026-05-07 21:21 | 62.59813 | 6.24501 | 2109 ft | 210 kts | 273° |
| 2026-05-07 21:21 | 62.59876 | 6.21446 | 2108 ft | 197 kts | 270° |
| 2026-05-07 21:21 | 62.59785 | 6.18513 | 2108 ft | 192 kts | 264° |
| 2026-05-07 21:22 | 62.59648 | 6.15647 | 2107 ft | 191 kts | 262° |
| 2026-05-07 21:22 | 62.59369 | 6.12841 | 2109 ft | 190 kts | 254° |
| 2026-05-07 21:22 | 62.59022 | 6.10077 | 2110 ft | 189 kts | 253° |
| 2026-05-07 21:22 | 62.58665 | 6.07318 | 1985 ft | 190 kts | 253° |
| 2026-05-07 21:23 | 62.58252 | 6.04625 | 1849 ft | 184 kts | 246° |
| 2026-05-07 21:23 | 62.57743 | 6.02174 | 1696 ft | 174 kts | 244° |
| 2026-05-07 21:23 | 62.57245 | 5.99895 | 1526 ft | 160 kts | 243° |
| 2026-05-07 21:23 | 62.56804 | 5.97884 | 1373 ft | 143 kts | 243° |
| 2026-05-07 21:24 | 62.56285 | 5.96149 | 1245 ft | 136 kts | 214° |
| 2026-05-07 21:24 | 62.55408 | 5.95863 | 1180 ft | 127 kts | 163° |
| 2026-05-07 21:24 | 62.54626 | 5.96581 | 1459 ft | 123 kts | 139° |
| 2026-05-07 21:24 | 62.54154 | 5.98213 | 1577 ft | 135 kts | 102° |
| 2026-05-07 21:25 | 62.54120 | 6.00251 | 1392 ft | 134 kts | 92° |
| 2026-05-07 21:25 | 62.54190 | 6.02189 | 1063 ft | 125 kts | 81° |
| 2026-05-07 21:25 | 62.54500 | 6.03923 | 683 ft | 123 kts | 66° |
| 2026-05-07 21:25 | 62.54849 | 6.05546 | 431 ft | 116 kts | 65° |
| 2026-05-07 21:26 | 62.55190 | 6.07106 | 303 ft | 114 kts | 64° |
| 2026-05-07 21:26 | 62.55525 | 6.08651 | 141 ft | 113 kts | 66° |
| 2026-05-07 21:26 | 62.55854 | 6.10155 | 62 ft | 102 kts | 67° |
| 2026-05-07 21:26 | 62.56061 | 6.11116 | 85 ft | 28 kts | 63° |
| 2026-05-07 21:27 | 62.56087 | 6.11346 | 83 ft | 12 kts | 141° |
| 2026-05-07 21:27 | 62.56006 | 6.11429 | 82 ft | 8 kts | 157° |
| 2026-05-07 21:27 | 62.55974 | 6.11433 | 84 ft | 2 kts | 184° |
| 2026-05-07 21:27 | 62.55941 | 6.11454 | 79 ft | 8 kts | 155° |
| 2026-05-07 21:28 | 62.55914 | 6.11482 | 80 ft | 3 kts | 154° |
| 2026-05-07 21:28 | 62.55912 | 6.11484 | 80 ft | 0 kts | 154° |